Time;durP1;ratioP1;P1;durP2;ratioP2;P2;SDS_P1;SDS_P2;PMS_P1;PMS_P2;Temp;Humidity;BMP_temperature;BMP_pressure;BME280_temperature;BME280_humidity;BME280_pressure;Samples;Min_cycle;Max_cycle;Signal;HPM_P1;HPM_P2
2021/09/27 00:01:40;;;;;;;13.83;8.93;;;;;;;15.64;74.07;99339.41;2189562;81;20975;-78
2021/09/27 00:04:41;;;;;;;15.43;9.33;;;;;;;15.50;74.74;99339.78;2189401;81;20987;-78
2021/09/27 00:07:41;;;;;;;12.90;8.83;;;;;;;15.41;75.17;99338.47;2189043;81;21011;-78
2021/09/27 00:10:42;;;;;;;15.75;8.43;;;;;;;15.34;75.67;99338.02;2189205;81;20976;-78
2021/09/27 00:13:42;;;;;;;15.83;9.98;;;;;;;15.26;76.27;99336.27;2188903;81;20940;-78
2021/09/27 00:16:43;;;;;;;17.67;9.48;;;;;;;15.19;76.22;99335.83;2188969;81;21359;-77
2021/09/27 00:19:43;;;;;;;13.38;8.43;;;;;;;15.19;76.39;99329.69;2189165;81;21050;-78
2021/09/27 00:22:44;;;;;;;13.30;8.93;;;;;;;15.14;76.44;99334.06;2189549;81;20944;-78
2021/09/27 00:25:45;;;;;;;14.53;8.68;;;;;;;15.12;76.63;99341.95;2189214;81;21447;-78
2021/09/27 00:28:46;;;;;;;11.88;8.33;;;;;;;15.07;76.97;99341.06;2189697;81;20971;-78
2021/09/27 00:31:46;;;;;;;124.95;89.00;;;;;;;15.01;77.33;99338.42;2189512;81;20964;-79
2021/09/27 00:34:47;;;;;;;258.32;210.43;;;;;;;15.05;80.41;99329.67;2189194;81;20979;-79
2021/09/27 00:37:47;;;;;;;68.62;51.83;;;;;;;16.93;79.73;99323.66;2188523;81;21307;-77
2021/09/27 00:40:48;;;;;;;20.45;15.25;;;;;;;18.32;73.62;99319.42;2188901;81;20932;-78
2021/09/27 00:43:48;;;;;;;12.47;8.00;;;;;;;17.65;70.52;99320.06;2189157;81;20960;-77
2021/09/27 00:46:49;;;;;;;12.98;7.62;;;;;;;16.90;70.80;99328.95;2189238;81;20993;-76
2021/09/27 00:49:50;;;;;;;10.65;7.47;;;;;;;16.36;71.76;99328.27;2189140;81;21056;-78
2021/09/27 00:52:50;;;;;;;14.98;8.13;;;;;;;15.98;72.60;99330.14;2189378;81;21330;-78
2021/09/27 00:55:51;;;;;;;16.02;7.03;;;;;;;15.40;74.29;99323.56;2189819;81;21324;-78
2021/09/27 00:58:51;;;;;;;9.18;6.55;;;;;;;15.40;74.29;99323.56;2189082;81;20972;-78
2021/09/27 01:01:52;;;;;;;13.35;6.70;;;;;;;15.24;74.35;99326.62;2189461;81;20969;-77
2021/09/27 01:04:53;;;;;;;15.10;7.17;;;;;;;15.10;74.72;99325.30;2189301;81;21019;-79
2021/09/27 01:07:53;;;;;;;12.53;7.22;;;;;;;14.95;75.93;99326.59;2189448;81;21052;-78
2021/09/27 01:10:54;;;;;;;13.28;6.75;;;;;;;14.83;75.50;99329.19;2189314;81;20956;-78
2021/09/27 01:13:54;;;;;;;10.45;6.30;;;;;;;14.77;75.61;99331.80;2189257;81;21328;-78
2021/09/27 01:16:55;;;;;;;408.38;319.60;;;;;;;14.71;75.99;99327.38;2189546;81;21289;-79
2021/09/27 01:19:55;;;;;;;328.32;243.93;;;;;;;14.82;81.36;99330.94;2189166;81;20987;-79
2021/09/27 01:22:56;;;;;;;166.82;122.67;;;;;;;17.15;80.07;99328.35;2189150;81;20984;-80
2021/09/27 01:25:56;;;;;;;44.98;32.65;;;;;;;19.36;67.88;99318.91;2189190;81;21045;-79
2021/09/27 01:28:57;;;;;;;29.12;22.17;;;;;;;19.36;67.88;99318.91;2189626;81;21000;-79
2021/09/27 01:31:58;;;;;;;30.05;21.10;;;;;;;18.45;66.79;99317.50;2189193;81;21055;-79
2021/09/27 01:34:58;;;;;;;24.05;16.67;;;;;;;17.88;68.09;99314.59;2189424;81;20991;-79
2021/09/27 01:37:59;;;;;;;14.45;9.70;;;;;;;17.41;68.67;99312.36;2189166;81;20916;-79
2021/09/27 01:40:59;;;;;;;19.73;12.95;;;;;;;17.32;69.41;99315.03;2189319;81;21383;-79
2021/09/27 01:44:00;;;;;;;335.70;270.57;;;;;;;17.15;69.23;99314.72;2189171;81;20972;-79
2021/09/27 01:47:00;;;;;;;200.95;162.82;;;;;;;17.94;72.71;99308.37;2189199;81;21015;-79
2021/09/27 01:50:01;;;;;;;32.13;25.27;;;;;;;19.54;68.27;99311.59;2175611;81;21044;-79
2021/09/27 01:53:01;;;;;;;130.57;101.27;;;;;;;19.30;64.70;99315.03;2172621;81;21355;-81
2021/09/27 01:56:02;;;;;;;101.45;78.05;;;;;;;19.05;66.10;99313.63;2172500;81;20945;-81
2021/09/27 01:59:02;;;;;;;28.62;22.20;;;;;;;19.95;65.06;99310.44;2172170;81;20965;-79
2021/09/27 02:02:03;;;;;;;20.77;14.70;;;;;;;19.96;61.88;99312.63;2172708;81;20985;-79
2021/09/27 02:05:03;;;;;;;17.23;10.63;;;;;;;19.27;62.49;99312.44;2173210;81;20992;-79
2021/09/27 02:08:03;;;;;;;16.55;6.83;;;;;;;18.75;62.94;99316.27;2172979;81;21351;-79
2021/09/27 02:11:04;;;;;;;11.33;5.15;;;;;;;18.46;63.31;99314.84;2172292;81;21323;-79
2021/09/27 02:14:06;;;;;;;12.65;4.83;;;;;;;17.77;63.35;99315.14;2173191;81;20933;-80
2021/09/27 02:17:07;;;;;;;8.90;4.20;;;;;;;17.05;64.39;99314.35;2172601;81;21064;-79
2021/09/27 02:20:07;;;;;;;8.83;4.58;;;;;;;16.05;66.61;99316.09;2172355;81;21071;-78
2021/09/27 02:26:10;;;;;;;6.92;4.37;;;;;;;15.71;68.05;99312.64;2161824;82;20997;-79
2021/09/27 02:29:10;;;;;;;9.23;5.10;;;;;;;15.43;68.66;99309.09;2172952;81;20973;-79
2021/09/27 02:32:11;;;;;;;8.28;5.05;;;;;;;15.17;69.49;99310.41;2172825;82;21004;-78
2021/09/27 02:35:11;;;;;;;6.53;4.28;;;;;;;14.94;70.26;99312.56;2172944;82;20961;-79
2021/09/27 02:38:12;;;;;;;8.75;4.62;;;;;;;14.76;70.86;99319.53;2172776;82;20941;-78
2021/09/27 02:41:13;;;;;;;120.20;88.52;;;;;;;14.62;71.31;99312.45;2172151;82;21418;-80
2021/09/27 02:44:13;;;;;;;311.95;233.78;;;;;;;15.12;77.12;99310.40;2172780;81;21000;-81
2021/09/27 02:47:13;;;;;;;43.73;27.77;;;;;;;17.65;73.71;99304.67;2172347;81;21006;-78
2021/09/27 02:50:14;;;;;;;21.37;8.48;;;;;;;18.48;66.40;99299.41;2172103;81;21054;-79
2021/09/27 02:53:14;;;;;;;10.18;4.95;;;;;;;17.53;65.30;99295.09;2172570;82;20984;-79
2021/09/27 02:56:15;;;;;;;12.55;4.58;;;;;;;16.68;65.99;99291.73;2172901;81;20969;-79
2021/09/27 02:59:16;;;;;;;51.95;31.82;;;;;;;16.10;67.05;99291.92;2172818;82;20960;-79
2021/09/27 03:02:16;;;;;;;26.77;16.10;;;;;;;16.28;70.52;99298.45;2173229;81;21020;-79
2021/09/27 03:05:16;;;;;;;33.45;21.40;;;;;;;16.62;68.52;99286.47;2173099;81;20956;-79
2021/09/27 03:08:17;;;;;;;16.57;12.43;;;;;;;16.58;69.03;99290.88;2172878;81;20956;-80
2021/09/27 03:11:17;;;;;;;17.85;10.58;;;;;;;16.73;68.57;99288.19;2172662;81;20977;-78
2021/09/27 03:14:18;;;;;;;11.55;6.05;;;;;;;16.84;68.73;99292.95;2172739;81;21333;-79
2021/09/27 03:17:18;;;;;;;10.05;6.80;;;;;;;16.85;67.84;99294.70;2172565;81;21004;-78
2021/09/27 03:20:19;;;;;;;225.38;165.95;;;;;;;16.94;68.19;99294.22;2171635;81;21012;-77
2021/09/27 03:23:19;;;;;;;258.13;206.32;;;;;;;18.25;70.14;99290.45;2172020;81;20980;-81
2021/09/27 03:26:20;;;;;;;163.12;134.18;;;;;;;19.99;65.72;99284.75;2172374;81;20992;-80
2021/09/27 03:29:20;;;;;;;155.90;121.30;;;;;;;20.68;62.22;99281.59;2172387;81;21316;-80
2021/09/27 03:32:21;;;;;;;112.57;88.17;;;;;;;20.56;60.47;99282.73;2172264;81;20949;-80
2021/09/27 03:35:21;;;;;;;86.50;62.47;;;;;;;21.16;60.57;99281.40;2172276;81;21016;-79
2021/09/27 03:38:22;;;;;;;68.35;50.67;;;;;;;21.75;57.84;99282.61;2171864;81;21012;-80
2021/09/27 03:41:22;;;;;;;49.33;32.93;;;;;;;22.00;57.80;99283.28;2172133;82;21375;-79
2021/09/27 03:44:23;;;;;;;34.30;19.95;;;;;;;22.22;56.15;99277.81;2171874;81;21063;-79
2021/09/27 03:47:24;;;;;;;16.82;9.58;;;;;;;22.42;54.46;99276.77;2172033;82;21004;-79
2021/09/27 03:50:25;;;;;;;13.28;5.45;;;;;;;22.39;54.09;99275.53;2184718;81;21419;-79
2021/09/27 03:53:25;;;;;;;14.43;9.00;;;;;;;22.48;54.35;99267.74;2188571;81;20987;-80
2021/09/27 03:56:26;;;;;;;16.82;6.80;;;;;;;22.51;53.34;99261.00;2189054;81;20976;-80
2021/09/27 03:59:26;;;;;;;305.57;249.90;;;;;;;22.62;52.24;99260.71;2189424;81;21252;-80
2021/09/27 04:02:27;;;;;;;147.13;121.22;;;;;;;22.42;51.99;99262.60;2189069;81;21339;-80
2021/09/27 04:05:31;;;;;;;124.15;95.42;;;;;;;22.13;52.69;99266.98;2189117;81;21042;-79
2021/09/27 04:08:31;;;;;;;70.10;51.53;;;;;;;21.94;53.00;99263.92;2188874;81;21036;-79
2021/09/27 04:11:32;;;;;;;35.78;24.63;;;;;;;22.04;52.28;99263.25;2188992;81;20976;-80
2021/09/27 04:14:32;;;;;;;30.23;22.20;;;;;;;21.98;52.72;99256.73;2189319;81;20924;-80
2021/09/27 04:17:36;;;;;;;54.55;35.17;;;;;;;21.84;51.88;99256.25;2189841;81;21023;-79
2021/09/27 04:20:36;;;;;;;28.42;16.10;;;;;;;21.47;52.74;99264.28;2189418;81;21031;-79
2021/09/27 04:23:36;;;;;;;30.43;19.12;;;;;;;21.39;52.75;99262.28;2189356;81;20908;-80
2021/09/27 04:26:37;;;;;;;27.55;14.00;;;;;;;20.86;53.91;99263.09;2188860;81;20964;-78
2021/09/27 04:29:37;;;;;;;19.45;13.08;;;;;;;20.81;53.29;99256.56;2188555;81;21003;-80
2021/09/27 04:32:38;;;;;;;13.53;7.17;;;;;;;21.06;53.21;99262.16;2189025;81;20964;-79
2021/09/27 04:35:38;;;;;;;22.85;10.95;;;;;;;21.09;53.12;99261.22;2188765;81;21332;-79
2021/09/27 04:38:39;;;;;;;12.95;7.70;;;;;;;21.10;53.57;99258.53;2188545;81;20995;-80
2021/09/27 04:41:39;;;;;;;15.18;5.55;;;;;;;20.92;53.69;99254.53;2188463;81;21016;-79
2021/09/27 04:44:40;;;;;;;17.17;6.70;;;;;;;20.87;53.03;99262.18;2188794;81;21095;-79
2021/09/27 04:47:41;;;;;;;19.82;5.95;;;;;;;20.75;53.45;99265.08;2189169;81;21347;-78
2021/09/27 04:50:41;;;;;;;25.55;18.23;;;;;;;20.53;53.45;99262.03;2189534;81;21023;-79
2021/09/27 04:53:42;;;;;;;49.55;31.82;;;;;;;20.33;53.90;99265.95;2189043;81;21019;-80
2021/09/27 04:56:42;;;;;;;26.68;16.70;;;;;;;20.62;54.44;99264.48;2188758;81;20944;-79
2021/09/27 04:59:43;;;;;;;33.70;13.40;;;;;;;20.86;55.19;99265.73;2189393;81;21050;-79
2021/09/27 05:02:43;;;;;;;26.90;11.00;;;;;;;20.74;55.31;99264.66;2189033;81;20924;-82
2021/09/27 05:05:44;;;;;;;28.67;10.25;;;;;;;20.92;55.19;99261.16;2189016;81;21019;-82
2021/09/27 05:08:45;;;;;;;45.48;8.10;;;;;;;21.14;53.91;99256.22;2188661;81;20968;-82
2021/09/27 05:11:45;;;;;;;10.75;4.80;;;;;;;21.08;53.66;99252.84;2188204;81;21364;-78
2021/09/27 05:14:45;;;;;;;10.78;4.47;;;;;;;19.93;52.67;99251.72;2188005;81;20992;-79
2021/09/27 05:17:46;;;;;;;8.38;4.58;;;;;;;18.22;55.25;99249.08;2188659;81;21007;-80
2021/09/27 05:20:47;;;;;;;9.88;4.40;;;;;;;17.07;57.51;99252.36;2188642;81;21000;-79
2021/09/27 05:23:48;;;;;;;7.22;4.53;;;;;;;16.34;59.78;99256.27;2188907;81;21276;-79
2021/09/27 05:26:49;;;;;;;10.90;5.00;;;;;;;15.83;61.31;99258.66;2189418;81;21082;-79
2021/09/27 05:29:49;;;;;;;11.05;4.70;;;;;;;15.42;63.26;99254.29;2187983;81;21328;-79
2021/09/27 05:32:50;;;;;;;14.38;4.97;;;;;;;15.17;64.88;99258.69;2187415;81;20929;-79
2021/09/27 05:35:51;;;;;;;9.65;4.97;;;;;;;15.03;65.88;99257.81;2187421;81;20964;-78
2021/09/27 05:38:51;;;;;;;11.03;4.75;;;;;;;14.94;66.24;99261.31;2188560;81;20987;-79
2021/09/27 05:41:52;;;;;;;12.98;5.55;;;;;;;14.89;67.31;99262.18;2187879;81;21023;-79
2021/09/27 05:44:52;;;;;;;11.08;5.42;;;;;;;14.87;67.48;99263.49;2187801;81;20960;-79
2021/09/27 05:47:53;;;;;;;11.07;5.57;;;;;;;14.88;68.63;99258.67;2188374;81;20968;-79
2021/09/27 05:50:53;;;;;;;9.63;5.35;;;;;;;14.93;68.81;99267.88;2189007;81;21411;-80
2021/09/27 05:53:54;;;;;;;8.53;5.53;;;;;;;14.98;68.65;99270.08;2188190;81;20976;-79
2021/09/27 05:56:54;;;;;;;11.50;6.05;;;;;;;15.05;68.86;99270.52;2188616;81;20956;-80
2021/09/27 05:59:54;;;;;;;13.78;6.12;;;;;;;15.14;69.47;99265.70;2188328;81;20984;-80
2021/09/27 06:02:56;;;;;;;13.85;5.78;;;;;;;15.22;69.48;99267.89;2188254;81;21339;-80
2021/09/27 06:05:57;;;;;;;46.98;7.62;;;;;;;15.30;69.80;99273.59;2187953;81;20995;-79
2021/09/27 06:08:57;;;;;;;9.68;5.83;;;;;;;15.40;69.58;99269.20;2188103;81;20967;-78
2021/09/27 06:11:58;;;;;;;11.25;5.62;;;;;;;15.55;69.62;99273.56;2188546;81;20972;-79
2021/09/27 06:14:58;;;;;;;9.93;5.47;;;;;;;15.62;69.82;99275.38;2188348;81;21014;-80
2021/09/27 06:17:58;;;;;;;12.35;5.95;;;;;;;15.73;69.14;99274.04;2188193;81;20999;-79
2021/09/27 06:20:59;;;;;;;11.50;5.40;;;;;;;15.84;69.27;99274.89;2187859;81;21027;-79
2021/09/27 06:24:00;;;;;;;11.80;5.65;;;;;;;15.94;69.56;99276.63;2187973;81;20995;-80
2021/09/27 06:27:00;;;;;;;7.87;5.47;;;;;;;16.03;68.99;99277.91;2188366;81;20972;-79
2021/09/27 06:30:01;;;;;;;10.08;5.40;;;;;;;16.19;68.95;99275.66;2188377;81;21016;-80
2021/09/27 06:33:01;;;;;;;11.68;6.42;;;;;;;16.29;68.69;99277.81;2188811;81;20979;-79
2021/09/27 06:36:02;;;;;;;13.15;5.62;;;;;;;16.39;68.72;99272.93;2188055;81;20984;-79
2021/09/27 06:39:03;;;;;;;14.13;6.03;;;;;;;16.43;68.29;99273.80;2188476;81;21335;-79
2021/09/27 06:42:04;;;;;;;10.45;5.53;;;;;;;16.48;68.28;99279.95;2189262;81;20999;-79
2021/09/27 06:45:04;;;;;;;12.58;5.37;;;;;;;16.57;68.15;99275.95;2188456;81;21348;-79
2021/09/27 06:48:05;;;;;;;8.40;5.17;;;;;;;16.72;68.16;99271.94;2188022;81;20971;-79
2021/09/27 06:51:05;;;;;;;8.23;5.47;;;;;;;16.88;68.00;99280.62;2188167;81;21027;-81
2021/09/27 06:54:06;;;;;;;10.60;6.10;;;;;;;16.95;67.29;99284.09;2189585;81;21697;-79
2021/09/27 06:57:06;;;;;;;32.70;7.70;;;;;;;16.96;67.33;99288.04;2188392;81;21624;-79
2021/09/27 07:00:08;;;;;;;127.25;13.95;;;;;;;17.04;67.27;99290.63;2188643;81;20988;-81
2021/09/27 07:03:09;;;;;;;16.80;5.97;;;;;;;17.09;67.18;99287.52;2188113;81;20964;-79
2021/09/27 07:06:09;;;;;;;8.55;6.12;;;;;;;17.24;67.05;99286.08;2187537;81;21018;-79
2021/09/27 07:09:10;;;;;;;25.15;6.42;;;;;;;17.45;66.38;99290.33;2187505;81;20912;-79
2021/09/27 07:12:13;;;;;;;10.68;6.25;;;;;;;17.45;66.38;99290.33;2187085;81;20936;-81
2021/09/27 07:15:14;;;;;;;12.45;6.00;;;;;;;17.35;65.82;99293.49;2188128;81;20960;-78
2021/09/27 07:18:14;;;;;;;46.23;8.50;;;;;;;17.25;66.13;99293.10;2187465;81;20971;-80
2021/09/27 07:21:15;;;;;;;11.00;5.90;;;;;;;17.20;66.04;99293.58;2187777;81;21011;-79
2021/09/27 07:24:15;;;;;;;15.70;6.15;;;;;;;17.26;66.35;99291.34;2187727;81;20940;-78
2021/09/27 07:27:16;;;;;;;9.75;5.70;;;;;;;17.39;66.21;99294.34;2187750;81;21355;-78
2021/09/27 07:30:16;;;;;;;13.08;6.12;;;;;;;17.43;65.99;99292.98;2186790;81;21615;-78
2021/09/27 07:33:17;;;;;;;9.35;5.30;;;;;;;17.48;66.03;99288.98;2187037;81;20952;-79
2021/09/27 07:36:18;;;;;;;11.03;5.75;;;;;;;17.56;66.02;99285.83;2188096;81;20956;-80
2021/09/27 07:39:19;;;;;;;11.75;5.22;;;;;;;17.69;65.97;99290.14;2187917;81;21351;-79
2021/09/27 07:42:19;;;;;;;24.55;6.80;;;;;;;17.79;65.59;99287.83;2187368;81;21180;-76
2021/09/27 07:45:20;;;;;;;8.95;5.28;;;;;;;17.91;65.67;99290.79;2186977;81;20951;-79
2021/09/27 07:48:20;;;;;;;10.85;5.65;;;;;;;18.22;65.55;99286.52;2187798;81;21011;-79
2021/09/27 07:51:21;;;;;;;9.35;5.35;;;;;;;18.65;64.91;99285.55;2175092;81;21027;-78
2021/09/27 07:54:21;;;;;;;7.92;5.92;;;;;;;18.96;63.31;99281.57;2171928;82;21040;-80
2021/09/27 07:57:22;;;;;;;11.18;5.92;;;;;;;18.89;63.38;99281.69;2171192;81;21349;-79
2021/09/27 08:00:23;;;;;;;13.03;6.17;;;;;;;18.96;62.89;99281.57;2171116;82;20971;-79
2021/09/27 08:03:23;;;;;;;10.82;6.83;;;;;;;18.91;63.29;99279.44;2171658;81;21019;-79
2021/09/27 08:06:23;;;;;;;9.15;6.35;;;;;;;18.87;63.01;99276.41;2171615;82;21035;-79
2021/09/27 08:09:24;;;;;;;9.60;6.08;;;;;;;18.98;62.80;99275.80;2172495;81;20972;-79
2021/09/27 08:12:25;;;;;;;11.75;6.40;;;;;;;19.01;62.86;99275.76;2171857;82;20948;-78
2021/09/27 08:15:25;;;;;;;11.43;6.05;;;;;;;19.00;62.64;99275.33;2171753;82;20959;-79
2021/09/27 08:18:26;;;;;;;10.55;6.40;;;;;;;19.04;63.26;99283.65;2171538;81;21043;-80
2021/09/27 08:21:26;;;;;;;23.02;7.78;;;;;;;19.18;63.01;99276.84;2171281;82;21423;-79
2021/09/27 08:24:27;;;;;;;12.43;7.58;;;;;;;19.41;63.10;99275.15;2170908;82;21059;-79
2021/09/27 08:27:27;;;;;;;15.80;7.17;;;;;;;19.69;62.06;99272.92;2172437;81;20969;-79
2021/09/27 08:30:28;;;;;;;11.83;6.83;;;;;;;19.58;61.73;99275.77;2171832;82;21014;-80
2021/09/27 08:33:29;;;;;;;7.70;5.53;;;;;;;19.58;62.28;99274.89;2171451;82;20981;-80
2021/09/27 08:36:29;;;;;;;15.20;6.65;;;;;;;19.63;62.21;99277.87;2171889;81;21000;-79
2021/09/27 08:39:30;;;;;;;10.70;6.30;;;;;;;19.61;62.34;99280.13;2171417;81;21755;-79
2021/09/27 08:42:30;;;;;;;8.95;6.30;;;;;;;19.55;62.00;99278.91;2171271;81;21667;-80
2021/09/27 08:45:31;;;;;;;13.65;6.50;;;;;;;19.55;62.68;99276.27;2171728;81;20972;-79
2021/09/27 08:48:31;;;;;;;10.78;7.05;;;;;;;19.59;62.28;99280.61;2171280;82;20937;-79
2021/09/27 08:51:32;;;;;;;13.28;7.00;;;;;;;19.78;62.16;99281.16;2182838;81;21035;-80
2021/09/27 08:54:32;;;;;;;8.75;6.33;;;;;;;19.95;61.67;99269.81;2188564;81;20920;-80
2021/09/27 08:57:33;;;;;;;21.00;7.28;;;;;;;20.06;60.67;99265.63;2188694;81;20932;-80
2021/09/27 09:00:33;;;;;;;9.85;6.53;;;;;;;20.11;61.17;99274.37;2188846;81;20936;-80
2021/09/27 09:03:34;;;;;;;15.63;6.40;;;;;;;20.12;61.39;99262.86;2189147;81;20980;-81
2021/09/27 09:06:34;;;;;;;32.55;8.30;;;;;;;20.21;61.58;99263.55;2188326;81;21026;-80
2021/09/27 09:09:36;;;;;;;10.72;6.08;;;;;;;20.31;60.98;99256.28;2187735;81;20944;-78
2021/09/27 09:12:37;;;;;;;195.57;21.40;;;;;;;20.60;61.11;99255.69;2187876;81;21336;-79
2021/09/27 09:15:37;;;;;;;21.17;6.28;;;;;;;20.88;60.52;99255.97;2188352;81;21125;-79
2021/09/27 09:18:38;;;;;;;10.98;6.42;;;;;;;20.99;59.12;99257.45;2188615;81;20952;-79
2021/09/27 09:21:38;;;;;;;22.75;6.85;;;;;;;21.02;59.33;99259.16;2188118;81;21046;-79
2021/09/27 09:24:39;;;;;;;10.85;6.03;;;;;;;21.10;59.34;99250.56;2188317;81;21691;-80
2021/09/27 09:27:39;;;;;;;9.85;5.62;;;;;;;21.22;58.82;99248.06;2188132;81;20936;-79
2021/09/27 09:30:40;;;;;;;7.10;5.75;;;;;;;21.21;58.19;99249.84;2188694;81;20964;-79
2021/09/27 09:33:40;;;;;;;9.00;5.70;;;;;;;21.25;58.71;99241.38;2188246;81;20996;-79
2021/09/27 09:36:41;;;;;;;12.50;5.78;;;;;;;21.29;58.43;99240.39;2188347;81;21391;-79
2021/09/27 09:39:42;;;;;;;9.40;5.67;;;;;;;21.29;57.79;99231.10;2188531;81;20924;-79
2021/09/27 09:42:42;;;;;;;8.35;5.50;;;;;;;21.36;57.91;99231.36;2188561;81;21218;-79
2021/09/27 09:45:43;;;;;;;19.85;6.05;;;;;;;21.43;57.70;99230.30;2188993;81;21003;-78
2021/09/27 09:48:43;;;;;;;6.60;5.40;;;;;;;21.44;58.13;99222.74;2188244;81;20991;-79
2021/09/27 09:51:44;;;;;;;7.92;5.35;;;;;;;21.62;57.93;99218.27;2188193;81;21066;-79
2021/09/27 09:54:44;;;;;;;11.43;5.92;;;;;;;21.80;58.69;99224.03;2188467;81;20980;-79
2021/09/27 09:57:45;;;;;;;8.45;5.50;;;;;;;21.99;58.33;99221.73;2188778;81;21023;-80
2021/09/27 10:00:45;;;;;;;9.48;5.65;;;;;;;22.11;57.06;99217.42;2189061;81;20972;-80
2021/09/27 10:03:46;;;;;;;5.97;5.28;;;;;;;22.23;57.18;99219.27;2188784;81;20976;-78
2021/09/27 10:06:48;;;;;;;10.23;5.67;;;;;;;22.23;55.88;99211.75;2171336;81;20987;-80
2021/09/27 10:09:50;;;;;;;7.17;5.50;;;;;;;22.09;55.83;99212.16;2189121;81;20952;-80
2021/09/27 10:12:51;;;;;;;8.15;5.08;;;;;;;22.15;55.40;99209.77;2188465;81;20944;-79
2021/09/27 10:15:51;;;;;;;7.47;5.30;;;;;;;22.19;55.05;99208.31;2188166;81;20982;-79
2021/09/27 10:18:52;;;;;;;8.08;5.58;;;;;;;22.20;55.82;99210.05;2187438;81;20944;-79
2021/09/27 10:21:52;;;;;;;9.33;5.72;;;;;;;22.24;55.96;99210.38;2187351;81;21004;-78
2021/09/27 10:24:53;;;;;;;9.45;5.72;;;;;;;22.30;55.78;99209.31;2187980;81;20948;-79
2021/09/27 10:27:54;;;;;;;7.83;5.70;;;;;;;22.27;54.54;99212.53;2187493;81;20944;-78
2021/09/27 10:30:54;;;;;;;9.83;5.60;;;;;;;22.23;54.88;99216.61;2187772;81;20944;-80
2021/09/27 10:33:55;;;;;;;10.60;5.62;;;;;;;22.31;55.21;99219.50;2186959;81;21340;-78
2021/09/27 10:36:56;;;;;;;10.82;6.03;;;;;;;22.36;53.87;99209.14;2187125;81;21355;-79
2021/09/27 10:39:57;;;;;;;34.88;8.63;;;;;;;22.37;54.67;99212.67;2187190;81;20960;-76
2021/09/27 10:42:57;;;;;;;14.60;6.05;;;;;;;22.50;54.38;99208.26;2187156;81;20968;-80
2021/09/27 10:45:58;;;;;;;10.82;6.80;;;;;;;22.57;53.55;99203.66;2188195;81;20992;-79
2021/09/27 10:48:58;;;;;;;9.75;5.72;;;;;;;22.66;54.01;99202.49;2188273;81;20961;-81
2021/09/27 10:51:59;;;;;;;6.50;5.70;;;;;;;22.88;54.28;99196.47;2188838;81;21051;-80
2021/09/27 10:55:00;;;;;;;10.93;5.70;;;;;;;23.04;51.70;99191.52;2188996;81;20980;-79
2021/09/27 10:58:00;;;;;;;12.53;6.00;;;;;;;23.01;52.53;99194.73;2188263;81;20980;-80
2021/09/27 11:01:01;;;;;;;6.85;6.05;;;;;;;23.05;51.94;99195.05;2187969;81;21003;-78
2021/09/27 11:04:01;;;;;;;8.63;6.47;;;;;;;23.19;51.18;99195.45;2188540;81;20992;-80
2021/09/27 11:07:02;;;;;;;8.20;6.05;;;;;;;23.27;51.07;99198.73;2188136;81;21285;-80
2021/09/27 11:10:02;;;;;;;6.37;5.67;;;;;;;23.48;50.69;99197.16;2189062;81;21015;-80
2021/09/27 11:13:03;;;;;;;43.35;9.10;;;;;;;23.53;49.82;99193.86;2188729;81;21279;-80
2021/09/27 11:16:08;;;;;;;8.30;5.92;;;;;;;23.73;49.83;99199.85;2187899;81;20912;-79
2021/09/27 11:19:05;;;;;;;17.62;6.55;;;;;;;23.90;49.71;99200.57;2142901;83;20980;-80
2021/09/27 11:22:06;;;;;;;7.90;5.50;;;;;;;23.94;48.85;99198.20;2143494;83;21053;-81
2021/09/27 11:25:07;;;;;;;6.08;5.50;;;;;;;23.85;48.92;99195.41;2143362;83;21069;-79
2021/09/27 11:28:07;;;;;;;14.47;6.50;;;;;;;23.75;48.73;99192.67;2143342;83;20986;-81
2021/09/27 11:31:08;;;;;;;7.00;5.12;;;;;;;23.63;49.58;99194.45;2142477;83;21445;-80
2021/09/27 11:34:08;;;;;;;7.60;5.47;;;;;;;23.49;49.21;99192.23;2143179;83;20986;-79
2021/09/27 11:37:09;;;;;;;326.82;31.45;;;;;;;23.35;48.90;99191.34;2142463;83;21284;-78
2021/09/27 11:40:09;;;;;;;6.22;5.33;;;;;;;22.99;49.94;99190.80;2120714;84;20953;-80
2021/09/27 11:43:10;;;;;;;11.35;6.00;;;;;;;22.91;50.29;99190.17;2120925;84;20996;-80
2021/09/27 11:46:10;;;;;;;8.68;5.50;;;;;;;22.89;50.85;99188.02;2121012;84;21036;-79
2021/09/27 11:49:11;;;;;;;13.05;5.62;;;;;;;22.87;50.65;99188.08;2120573;84;20968;-80
2021/09/27 11:52:11;;;;;;;7.47;5.67;;;;;;;22.82;50.73;99183.36;2113879;84;21484;-79
2021/09/27 11:55:12;;;;;;;9.13;5.72;;;;;;;22.86;50.66;99178.34;2126951;83;21027;-78
2021/09/27 11:58:12;;;;;;;15.48;5.50;;;;;;;22.96;50.27;99182.04;2126621;83;21008;-79
2021/09/27 12:01:13;;;;;;;10.08;5.70;;;;;;;22.93;49.93;99183.02;2126841;84;21008;-80
2021/09/27 12:04:13;;;;;;;19.85;6.80;;;;;;;22.99;50.36;99176.61;2126570;83;21016;-78
2021/09/27 12:07:14;;;;;;;7.92;5.20;;;;;;;23.14;50.60;99179.63;2125780;84;20941;-81
2021/09/27 12:10:14;;;;;;;10.40;5.05;;;;;;;23.36;50.64;99178.44;2126505;84;20952;-79
2021/09/27 12:13:15;;;;;;;8.98;5.60;;;;;;;23.37;50.18;99169.52;2126679;83;20984;-80
2021/09/27 12:16:16;;;;;;;6.65;5.30;;;;;;;23.26;49.98;99171.69;2127336;84;20980;-78
2021/09/27 12:19:16;;;;;;;6.40;5.45;;;;;;;23.09;50.44;99178.05;2126383;83;21008;-79
2021/09/27 12:22:17;;;;;;;7.55;5.20;;;;;;;22.87;50.05;99174.77;2126147;83;21016;-80
2021/09/27 12:25:17;;;;;;;11.08;5.03;;;;;;;22.81;51.20;99172.77;2126091;84;20984;-79
2021/09/27 12:28:18;;;;;;;7.85;5.08;;;;;;;22.96;51.40;99172.27;2125461;83;20992;-79
2021/09/27 12:31:18;;;;;;;7.28;5.70;;;;;;;23.11;51.04;99180.20;2125850;84;20969;-79
2021/09/27 12:34:19;;;;;;;10.98;5.75;;;;;;;23.10;49.79;99173.13;2125284;84;21008;-79
2021/09/27 12:37:19;;;;;;;10.63;5.70;;;;;;;22.98;50.57;99169.55;2125627;83;21391;-80
2021/09/27 12:40:20;;;;;;;6.65;5.70;;;;;;;22.98;50.57;99169.55;2125688;83;20975;-79
2021/09/27 12:43:20;;;;;;;8.13;5.45;;;;;;;22.96;51.59;99169.59;2126052;84;20977;-78
2021/09/27 12:46:21;;;;;;;7.58;6.08;;;;;;;22.92;50.87;99173.74;2126025;84;21031;-78
2021/09/27 12:49:21;;;;;;;9.75;6.33;;;;;;;22.86;51.88;99176.14;2126139;84;20961;-78
2021/09/27 12:52:22;;;;;;;218.00;23.10;;;;;;;22.68;51.40;99162.94;2130029;83;21372;-80
2021/09/27 12:55:22;;;;;;;13.45;6.10;;;;;;;22.65;51.39;99165.70;2132510;83;21012;-78
2021/09/27 12:58:23;;;;;;;6.75;4.92;;;;;;;22.58;51.88;99170.81;2132673;83;20992;-78
2021/09/27 13:01:24;;;;;;;7.60;5.62;;;;;;;22.63;51.64;99166.67;2132403;83;20960;-79
2021/09/27 13:04:24;;;;;;;11.05;5.97;;;;;;;22.52;51.65;99170.97;2131014;83;21059;-78
2021/09/27 13:07:25;;;;;;;12.20;6.03;;;;;;;22.42;52.05;99160.20;2132141;83;20964;-78
2021/09/27 13:10:25;;;;;;;9.88;5.62;;;;;;;22.38;52.16;99163.88;2132583;83;21000;-78
2021/09/27 13:13:28;;;;;;;12.15;6.50;;;;;;;22.42;52.13;99161.08;2132281;83;20960;-79
2021/09/27 13:16:28;;;;;;;7.03;5.62;;;;;;;22.50;52.35;99159.05;2132630;83;20929;-78
2021/09/27 13:19:29;;;;;;;7.08;5.83;;;;;;;22.43;51.16;99152.64;2131856;83;20964;-80
2021/09/27 13:22:29;;;;;;;9.58;6.03;;;;;;;22.34;52.21;99155.13;2132196;83;21384;-77
2021/09/27 13:25:30;;;;;;;9.00;5.80;;;;;;;22.43;52.67;99155.30;2132285;83;21712;-79
2021/09/27 13:28:30;;;;;;;8.40;5.87;;;;;;;22.51;51.79;99157.25;2132562;83;20944;-78
2021/09/27 13:31:31;;;;;;;14.33;5.90;;;;;;;22.52;52.36;99162.53;2132498;83;20952;-80
2021/09/27 13:34:31;;;;;;;10.00;5.40;;;;;;;22.49;52.38;99155.97;2132918;83;20964;-80
2021/09/27 13:37:32;;;;;;;7.25;6.05;;;;;;;22.40;51.81;99158.92;2133269;83;20957;-79
2021/09/27 13:40:35;;;;;;;8.00;5.80;;;;;;;22.29;52.11;99154.85;2133406;83;20992;-79
2021/09/27 13:43:36;;;;;;;11.33;6.45;;;;;;;22.20;52.41;99162.19;2133732;83;21002;-78
2021/09/27 13:46:36;;;;;;;8.93;6.40;;;;;;;21.99;52.41;99155.28;2133975;83;21051;-78
2021/09/27 13:49:37;;;;;;;11.45;6.10;;;;;;;21.84;52.68;99155.27;2134436;83;20928;-79
2021/09/27 13:52:37;;;;;;;9.65;5.83;;;;;;;21.87;53.18;99154.72;2129298;83;21020;-78
2021/09/27 13:55:38;;;;;;;10.25;6.33;;;;;;;21.81;53.02;99148.72;2127476;84;21040;-80
2021/09/27 13:58:39;;;;;;;6.53;5.83;;;;;;;21.73;53.56;99149.39;2127947;84;21012;-79
2021/09/27 14:01:42;;;;;;;6.95;5.67;;;;;;;21.73;53.62;99141.42;2128049;84;20968;-79